Terminal Aerodrome Forecast
Issued by NWS Wilmington, NC

Home | Current Version | Previous Version | Text Only | Print | Product List | Glossary On
Versions: 1 2 3 4 5 6 7 8 9 10 11 12 13 14
000
FTUS42 KILM 120520
TAFMYR
TAF
KMYR 120520Z 1206/1306 21005KT P6SM SKC
     FM120900 22005KT P6SM SKC WS015/24030KT
     FM121500 24013G20KT P6SM SKC
     FM122100 29010G20KT P6SM SCT080=

USA.gov is the U.S. government's official web portal to all federal, state and local government web resources and services.